sensor_id;sensor_type;location;lat;lon;timestamp;P1;durP1;ratioP1;P2;durP2;ratioP2
21494;SDS011;10909;53.590;10.054;2022-12-16T00:00:31;11.23;;;9.10;;
21494;SDS011;10909;53.590;10.054;2022-12-16T00:02:58;13.13;;;9.57;;
21494;SDS011;10909;53.590;10.054;2022-12-16T00:05:25;13.70;;;9.30;;
21494;SDS011;10909;53.590;10.054;2022-12-16T00:07:55;12.87;;;9.80;;
21494;SDS011;10909;53.590;10.054;2022-12-16T00:10:21;11.67;;;9.47;;
21494;SDS011;10909;53.590;10.054;2022-12-16T00:12:47;13.43;;;9.80;;
21494;SDS011;10909;53.590;10.054;2022-12-16T00:15:14;12.83;;;9.87;;
21494;SDS011;10909;53.590;10.054;2022-12-16T00:17:40;11.27;;;9.67;;
21494;SDS011;10909;53.590;10.054;2022-12-16T00:20:05;12.70;;;9.93;;
21494;SDS011;10909;53.590;10.054;2022-12-16T00:22:32;11.90;;;9.33;;
21494;SDS011;10909;53.590;10.054;2022-12-16T00:24:58;12.43;;;9.63;;
21494;SDS011;10909;53.590;10.054;2022-12-16T00:27:24;12.30;;;9.97;;
21494;SDS011;10909;53.590;10.054;2022-12-16T00:29:50;13.60;;;10.30;;
21494;SDS011;10909;53.590;10.054;2022-12-16T00:32:15;13.63;;;10.10;;
21494;SDS011;10909;53.590;10.054;2022-12-16T00:34:41;12.50;;;9.83;;
21494;SDS011;10909;53.590;10.054;2022-12-16T00:37:07;11.73;;;9.83;;
21494;SDS011;10909;53.590;10.054;2022-12-16T00:39:32;11.47;;;9.37;;
21494;SDS011;10909;53.590;10.054;2022-12-16T00:41:58;13.70;;;10.47;;
21494;SDS011;10909;53.590;10.054;2022-12-16T00:44:24;11.40;;;9.20;;
21494;SDS011;10909;53.590;10.054;2022-12-16T00:46:49;12.80;;;9.23;;
21494;SDS011;10909;53.590;10.054;2022-12-16T00:49:15;11.73;;;8.77;;
21494;SDS011;10909;53.590;10.054;2022-12-16T00:51:40;11.67;;;9.53;;
21494;SDS011;10909;53.590;10.054;2022-12-16T00:54:07;13.67;;;9.87;;
21494;SDS011;10909;53.590;10.054;2022-12-16T00:56:33;12.13;;;9.90;;
21494;SDS011;10909;53.590;10.054;2022-12-16T00:58:59;13.17;;;10.00;;
21494;SDS011;10909;53.590;10.054;2022-12-16T01:01:25;11.63;;;9.07;;
21494;SDS011;10909;53.590;10.054;2022-12-16T01:03:51;14.17;;;10.47;;
21494;SDS011;10909;53.590;10.054;2022-12-16T01:06:21;13.10;;;10.50;;
21494;SDS011;10909;53.590;10.054;2022-12-16T01:08:46;14.80;;;10.73;;
21494;SDS011;10909;53.590;10.054;2022-12-16T01:11:13;15.07;;;11.20;;
21494;SDS011;10909;53.590;10.054;2022-12-16T01:13:41;14.63;;;10.33;;
21494;SDS011;10909;53.590;10.054;2022-12-16T01:16:07;13.70;;;10.67;;
21494;SDS011;10909;53.590;10.054;2022-12-16T01:18:32;13.13;;;10.10;;
21494;SDS011;10909;53.590;10.054;2022-12-16T01:21:01;12.57;;;10.00;;
21494;SDS011;10909;53.590;10.054;2022-12-16T01:23:27;11.70;;;9.93;;
21494;SDS011;10909;53.590;10.054;2022-12-16T01:25:54;12.70;;;10.07;;
21494;SDS011;10909;53.590;10.054;2022-12-16T01:28:22;12.43;;;9.63;;
21494;SDS011;10909;53.590;10.054;2022-12-16T01:30:48;11.87;;;10.30;;
21494;SDS011;10909;53.590;10.054;2022-12-16T01:33:13;11.90;;;10.07;;
21494;SDS011;10909;53.590;10.054;2022-12-16T01:35:40;13.80;;;10.30;;
21494;SDS011;10909;53.590;10.054;2022-12-16T01:38:07;12.70;;;9.77;;
21494;SDS011;10909;53.590;10.054;2022-12-16T01:40:32;15.27;;;11.03;;
21494;SDS011;10909;53.590;10.054;2022-12-16T01:42:58;11.90;;;9.53;;
21494;SDS011;10909;53.590;10.054;2022-12-16T01:45:31;12.73;;;9.93;;
21494;SDS011;10909;53.590;10.054;2022-12-16T01:48:18;12.53;;;9.47;;
21494;SDS011;10909;53.590;10.054;2022-12-16T01:50:58;11.47;;;9.13;;
21494;SDS011;10909;53.590;10.054;2022-12-16T01:53:28;11.73;;;9.63;;
21494;SDS011;10909;53.590;10.054;2022-12-16T01:55:54;12.70;;;10.13;;
21494;SDS011;10909;53.590;10.054;2022-12-16T01:58:22;13.30;;;9.90;;
21494;SDS011;10909;53.590;10.054;2022-12-16T02:00:52;11.73;;;8.97;;
21494;SDS011;10909;53.590;10.054;2022-12-16T02:03:18;11.17;;;9.27;;
21494;SDS011;10909;53.590;10.054;2022-12-16T02:05:44;12.73;;;9.33;;
21494;SDS011;10909;53.590;10.054;2022-12-16T02:08:12;12.57;;;9.37;;
21494;SDS011;10909;53.590;10.054;2022-12-16T02:16:15;12.40;;;9.47;;
21494;SDS011;10909;53.590;10.054;2022-12-16T02:18:44;14.10;;;10.07;;
21494;SDS011;10909;53.590;10.054;2022-12-16T02:35:38;11.77;;;9.13;;
21494;SDS011;10909;53.590;10.054;2022-12-16T02:40:56;12.67;;;9.33;;
21494;SDS011;10909;53.590;10.054;2022-12-16T02:46:40;11.77;;;9.10;;
21494;SDS011;10909;53.590;10.054;2022-12-16T02:49:53;11.87;;;9.00;;
21494;SDS011;10909;53.590;10.054;2022-12-16T02:51:54;12.70;;;8.80;;
21494;SDS011;10909;53.590;10.054;2022-12-16T02:54:21;11.37;;;8.83;;
21494;SDS011;10909;53.590;10.054;2022-12-16T03:00:01;12.57;;;9.43;;
21494;SDS011;10909;53.590;10.054;2022-12-16T03:08:13;12.07;;;9.40;;
21494;SDS011;10909;53.590;10.054;2022-12-16T03:10:49;11.83;;;9.13;;
21494;SDS011;10909;53.590;10.054;2022-12-16T03:13:18;14.37;;;10.57;;
21494;SDS011;10909;53.590;10.054;2022-12-16T03:15:46;12.23;;;9.37;;
21494;SDS011;10909;53.590;10.054;2022-12-16T03:18:13;12.67;;;9.47;;
21494;SDS011;10909;53.590;10.054;2022-12-16T03:23:11;12.30;;;9.67;;
21494;SDS011;10909;53.590;10.054;2022-12-16T03:25:41;15.20;;;10.00;;
21494;SDS011;10909;53.590;10.054;2022-12-16T03:31:30;11.03;;;8.60;;
21494;SDS011;10909;53.590;10.054;2022-12-16T03:36:36;13.23;;;9.50;;
21494;SDS011;10909;53.590;10.054;2022-12-16T03:39:04;13.70;;;10.17;;
21494;SDS011;10909;53.590;10.054;2022-12-16T03:41:31;11.40;;;9.07;;
21494;SDS011;10909;53.590;10.054;2022-12-16T03:43:58;13.37;;;9.10;;
21494;SDS011;10909;53.590;10.054;2022-12-16T03:46:24;11.73;;;8.67;;
21494;SDS011;10909;53.590;10.054;2022-12-16T03:48:51;14.97;;;9.27;;
21494;SDS011;10909;53.590;10.054;2022-12-16T03:51:17;12.27;;;9.33;;
21494;SDS011;10909;53.590;10.054;2022-12-16T03:53:43;13.23;;;9.23;;
21494;SDS011;10909;53.590;10.054;2022-12-16T03:56:09;11.80;;;9.17;;
21494;SDS011;10909;53.590;10.054;2022-12-16T03:58:36;11.83;;;9.37;;
21494;SDS011;10909;53.590;10.054;2022-12-16T04:01:04;12.03;;;9.17;;
21494;SDS011;10909;53.590;10.054;2022-12-16T04:03:31;11.87;;;8.93;;
21494;SDS011;10909;53.590;10.054;2022-12-16T04:05:57;12.40;;;10.13;;
21494;SDS011;10909;53.590;10.054;2022-12-16T04:08:22;11.70;;;9.17;;
21494;SDS011;10909;53.590;10.054;2022-12-16T04:10:50;13.83;;;10.20;;
21494;SDS011;10909;53.590;10.054;2022-12-16T04:13:34;12.67;;;9.53;;
21494;SDS011;10909;53.590;10.054;2022-12-16T04:16:18;12.67;;;8.63;;
21494;SDS011;10909;53.590;10.054;2022-12-16T04:19:03;13.13;;;9.77;;
21494;SDS011;10909;53.590;10.054;2022-12-16T04:21:47;11.63;;;9.10;;
21494;SDS011;10909;53.590;10.054;2022-12-16T04:24:33;12.40;;;9.23;;
21494;SDS011;10909;53.590;10.054;2022-12-16T04:27:00;13.60;;;9.67;;
21494;SDS011;10909;53.590;10.054;2022-12-16T04:29:45;13.70;;;9.93;;
21494;SDS011;10909;53.590;10.054;2022-12-16T04:32:29;11.83;;;9.60;;
21494;SDS011;10909;53.590;10.054;2022-12-16T04:35:16;11.77;;;9.30;;
21494;SDS011;10909;53.590;10.054;2022-12-16T04:38:02;13.87;;;9.43;;
21494;SDS011;10909;53.590;10.054;2022-12-16T04:40:46;13.20;;;9.97;;
21494;SDS011;10909;53.590;10.054;2022-12-16T04:43:30;13.10;;;9.50;;
21494;SDS011;10909;53.590;10.054;2022-12-16T04:46:14;12.83;;;9.37;;
21494;SDS011;10909;53.590;10.054;2022-12-16T04:48:58;14.80;;;10.23;;
21494;SDS011;10909;53.590;10.054;2022-12-16T04:51:43;13.53;;;9.63;;
21494;SDS011;10909;53.590;10.054;2022-12-16T04:54:27;12.73;;;9.90;;
21494;SDS011;10909;53.590;10.054;2022-12-16T04:57:11;13.87;;;9.60;;
21494;SDS011;10909;53.590;10.054;2022-12-16T04:59:55;11.80;;;9.27;;
21494;SDS011;10909;53.590;10.054;2022-12-16T05:02:39;13.00;;;9.43;;
21494;SDS011;10909;53.590;10.054;2022-12-16T05:05:24;14.37;;;9.97;;
21494;SDS011;10909;53.590;10.054;2022-12-16T05:08:08;14.50;;;9.93;;
21494;SDS011;10909;53.590;10.054;2022-12-16T05:10:52;14.77;;;10.47;;
21494;SDS011;10909;53.590;10.054;2022-12-16T05:13:36;14.63;;;10.07;;
21494;SDS011;10909;53.590;10.054;2022-12-16T05:16:20;15.87;;;10.97;;
21494;SDS011;10909;53.590;10.054;2022-12-16T05:19:05;14.40;;;11.27;;
21494;SDS011;10909;53.590;10.054;2022-12-16T05:21:49;14.33;;;10.87;;
21494;SDS011;10909;53.590;10.054;2022-12-16T05:24:33;15.27;;;11.27;;
21494;SDS011;10909;53.590;10.054;2022-12-16T05:27:17;13.80;;;10.37;;
21494;SDS011;10909;53.590;10.054;2022-12-16T05:30:01;14.57;;;9.70;;
21494;SDS011;10909;53.590;10.054;2022-12-16T05:32:47;14.80;;;10.77;;
21494;SDS011;10909;53.590;10.054;2022-12-16T05:35:32;15.57;;;10.67;;
21494;SDS011;10909;53.590;10.054;2022-12-16T05:38:16;14.90;;;10.27;;
21494;SDS011;10909;53.590;10.054;2022-12-16T05:41:01;13.83;;;10.53;;
21494;SDS011;10909;53.590;10.054;2022-12-16T05:43:45;14.43;;;10.33;;
21494;SDS011;10909;53.590;10.054;2022-12-16T05:46:29;14.67;;;10.53;;
21494;SDS011;10909;53.590;10.054;2022-12-16T05:49:13;15.50;;;10.37;;
21494;SDS011;10909;53.590;10.054;2022-12-16T05:51:57;13.73;;;10.20;;
21494;SDS011;10909;53.590;10.054;2022-12-16T05:54:41;16.63;;;11.07;;
21494;SDS011;10909;53.590;10.054;2022-12-16T05:57:26;13.40;;;10.47;;
21494;SDS011;10909;53.590;10.054;2022-12-16T06:00:11;13.97;;;10.73;;
21494;SDS011;10909;53.590;10.054;2022-12-16T06:02:55;12.97;;;9.73;;
21494;SDS011;10909;53.590;10.054;2022-12-16T06:05:39;13.53;;;10.83;;
21494;SDS011;10909;53.590;10.054;2022-12-16T06:08:24;14.23;;;9.57;;
21494;SDS011;10909;53.590;10.054;2022-12-16T06:11:09;14.97;;;10.33;;
21494;SDS011;10909;53.590;10.054;2022-12-16T06:13:54;13.50;;;10.50;;
21494;SDS011;10909;53.590;10.054;2022-12-16T06:16:37;14.27;;;9.73;;
21494;SDS011;10909;53.590;10.054;2022-12-16T06:19:21;14.43;;;9.87;;
21494;SDS011;10909;53.590;10.054;2022-12-16T06:22:06;16.00;;;10.30;;
21494;SDS011;10909;53.590;10.054;2022-12-16T06:24:50;14.57;;;10.73;;
21494;SDS011;10909;53.590;10.054;2022-12-16T06:27:34;15.13;;;9.80;;
21494;SDS011;10909;53.590;10.054;2022-12-16T06:30:18;13.93;;;9.67;;
21494;SDS011;10909;53.590;10.054;2022-12-16T06:33:03;14.47;;;10.00;;
21494;SDS011;10909;53.590;10.054;2022-12-16T06:35:47;14.80;;;10.53;;
21494;SDS011;10909;53.590;10.054;2022-12-16T06:38:31;14.07;;;10.90;;
21494;SDS011;10909;53.590;10.054;2022-12-16T06:41:15;14.03;;;10.20;;
21494;SDS011;10909;53.590;10.054;2022-12-16T06:44:00;14.77;;;10.50;;
21494;SDS011;10909;53.590;10.054;2022-12-16T06:46:45;13.30;;;9.87;;
21494;SDS011;10909;53.590;10.054;2022-12-16T06:49:29;16.87;;;10.60;;
21494;SDS011;10909;53.590;10.054;2022-12-16T06:52:13;14.57;;;10.33;;
21494;SDS011;10909;53.590;10.054;2022-12-16T06:54:58;14.73;;;10.83;;
21494;SDS011;10909;53.590;10.054;2022-12-16T06:57:42;13.97;;;10.33;;
21494;SDS011;10909;53.590;10.054;2022-12-16T07:00:26;12.33;;;9.73;;
21494;SDS011;10909;53.590;10.054;2022-12-16T07:03:10;14.30;;;9.70;;
21494;SDS011;10909;53.590;10.054;2022-12-16T07:05:55;15.13;;;10.63;;
21494;SDS011;10909;53.590;10.054;2022-12-16T07:08:39;12.70;;;9.10;;
21494;SDS011;10909;53.590;10.054;2022-12-16T07:11:23;14.50;;;10.57;;
21494;SDS011;10909;53.590;10.054;2022-12-16T07:14:07;12.33;;;10.27;;
21494;SDS011;10909;53.590;10.054;2022-12-16T07:16:52;18.15;;;13.63;;
21494;SDS011;10909;53.590;10.054;2022-12-16T07:19:36;17.37;;;12.63;;
21494;SDS011;10909;53.590;10.054;2022-12-16T07:22:20;15.40;;;11.67;;
21494;SDS011;10909;53.590;10.054;2022-12-16T07:25:04;16.50;;;13.68;;
21494;SDS011;10909;53.590;10.054;2022-12-16T07:27:49;15.63;;;12.03;;
21494;SDS011;10909;53.590;10.054;2022-12-16T07:30:33;16.47;;;11.77;;
21494;SDS011;10909;53.590;10.054;2022-12-16T07:33:18;18.53;;;12.03;;
21494;SDS011;10909;53.590;10.054;2022-12-16T07:36:02;16.73;;;11.43;;
21494;SDS011;10909;53.590;10.054;2022-12-16T07:38:46;16.50;;;11.90;;
21494;SDS011;10909;53.590;10.054;2022-12-16T07:41:31;16.30;;;11.77;;
21494;SDS011;10909;53.590;10.054;2022-12-16T07:44:22;16.03;;;11.40;;
21494;SDS011;10909;53.590;10.054;2022-12-16T07:47:06;16.43;;;11.80;;
21494;SDS011;10909;53.590;10.054;2022-12-16T07:49:51;13.93;;;10.67;;
21494;SDS011;10909;53.590;10.054;2022-12-16T07:52:35;15.73;;;11.47;;
21494;SDS011;10909;53.590;10.054;2022-12-16T07:55:19;15.17;;;10.93;;
21494;SDS011;10909;53.590;10.054;2022-12-16T07:58:03;15.23;;;10.97;;
21494;SDS011;10909;53.590;10.054;2022-12-16T08:00:47;17.43;;;11.83;;
21494;SDS011;10909;53.590;10.054;2022-12-16T08:03:31;19.07;;;12.73;;
21494;SDS011;10909;53.590;10.054;2022-12-16T08:06:16;14.93;;;11.50;;
21494;SDS011;10909;53.590;10.054;2022-12-16T08:09:01;16.07;;;11.40;;
21494;SDS011;10909;53.590;10.054;2022-12-16T08:11:45;15.23;;;11.73;;
21494;SDS011;10909;53.590;10.054;2022-12-16T08:14:29;16.03;;;11.57;;
21494;SDS011;10909;53.590;10.054;2022-12-16T08:17:14;16.23;;;11.40;;
21494;SDS011;10909;53.590;10.054;2022-12-16T08:19:57;19.23;;;11.77;;
21494;SDS011;10909;53.590;10.054;2022-12-16T08:22:41;16.17;;;11.97;;
21494;SDS011;10909;53.590;10.054;2022-12-16T08:25:25;17.43;;;12.27;;
21494;SDS011;10909;53.590;10.054;2022-12-16T08:28:10;15.10;;;11.93;;
21494;SDS011;10909;53.590;10.054;2022-12-16T08:30:54;14.50;;;11.23;;
21494;SDS011;10909;53.590;10.054;2022-12-16T08:33:38;16.63;;;12.17;;
21494;SDS011;10909;53.590;10.054;2022-12-16T08:36:22;20.17;;;12.13;;
21494;SDS011;10909;53.590;10.054;2022-12-16T08:39:06;15.00;;;11.87;;
21494;SDS011;10909;53.590;10.054;2022-12-16T08:41:50;15.73;;;12.47;;
21494;SDS011;10909;53.590;10.054;2022-12-16T08:44:34;18.30;;;12.63;;
21494;SDS011;10909;53.590;10.054;2022-12-16T08:47:18;16.50;;;12.00;;
21494;SDS011;10909;53.590;10.054;2022-12-16T08:50:04;18.23;;;12.73;;
21494;SDS011;10909;53.590;10.054;2022-12-16T08:52:49;22.65;;;20.05;;
21494;SDS011;10909;53.590;10.054;2022-12-16T08:55:33;18.90;;;15.47;;
21494;SDS011;10909;53.590;10.054;2022-12-16T08:58:17;19.57;;;14.70;;
21494;SDS011;10909;53.590;10.054;2022-12-16T09:01:02;20.50;;;14.40;;
21494;SDS011;10909;53.590;10.054;2022-12-16T09:03:46;18.30;;;13.00;;
21494;SDS011;10909;53.590;10.054;2022-12-16T09:06:30;18.13;;;12.80;;
21494;SDS011;10909;53.590;10.054;2022-12-16T09:09:14;16.43;;;11.80;;
21494;SDS011;10909;53.590;10.054;2022-12-16T09:11:59;14.93;;;12.33;;
21494;SDS011;10909;53.590;10.054;2022-12-16T09:14:45;16.53;;;12.73;;
21494;SDS011;10909;53.590;10.054;2022-12-16T09:17:29;16.23;;;12.57;;
21494;SDS011;10909;53.590;10.054;2022-12-16T09:20:13;17.93;;;12.37;;
21494;SDS011;10909;53.590;10.054;2022-12-16T09:23:01;16.87;;;12.33;;
21494;SDS011;10909;53.590;10.054;2022-12-16T09:25:47;17.10;;;12.30;;
21494;SDS011;10909;53.590;10.054;2022-12-16T09:28:32;16.77;;;12.53;;
21494;SDS011;10909;53.590;10.054;2022-12-16T09:31:16;18.50;;;13.13;;
21494;SDS011;10909;53.590;10.054;2022-12-16T09:34:01;17.40;;;12.67;;
21494;SDS011;10909;53.590;10.054;2022-12-16T09:36:45;17.17;;;13.37;;
21494;SDS011;10909;53.590;10.054;2022-12-16T09:39:29;15.73;;;12.07;;
21494;SDS011;10909;53.590;10.054;2022-12-16T09:48:19;18.07;;;12.83;;
21494;SDS011;10909;53.590;10.054;2022-12-16T09:51:21;16.03;;;12.53;;
21494;SDS011;10909;53.590;10.054;2022-12-16T09:54:08;17.33;;;12.17;;
21494;SDS011;10909;53.590;10.054;2022-12-16T09:56:55;16.70;;;12.40;;
21494;SDS011;10909;53.590;10.054;2022-12-16T09:59:42;18.03;;;13.30;;
21494;SDS011;10909;53.590;10.054;2022-12-16T10:02:32;18.10;;;13.63;;
21494;SDS011;10909;53.590;10.054;2022-12-16T10:05:17;16.47;;;12.80;;
21494;SDS011;10909;53.590;10.054;2022-12-16T10:08:33;16.87;;;13.03;;
21494;SDS011;10909;53.590;10.054;2022-12-16T10:14:38;18.37;;;13.33;;
21494;SDS011;10909;53.590;10.054;2022-12-16T10:17:53;15.83;;;12.30;;
21494;SDS011;10909;53.590;10.054;2022-12-16T10:23:29;16.43;;;12.27;;
21494;SDS011;10909;53.590;10.054;2022-12-16T10:26:19;17.30;;;13.03;;
21494;SDS011;10909;53.590;10.054;2022-12-16T10:29:18;17.97;;;12.90;;
21494;SDS011;10909;53.590;10.054;2022-12-16T10:35:26;16.97;;;12.90;;
21494;SDS011;10909;53.590;10.054;2022-12-16T10:38:17;17.30;;;13.43;;
21494;SDS011;10909;53.590;10.054;2022-12-16T10:41:10;17.03;;;12.43;;
21494;SDS011;10909;53.590;10.054;2022-12-16T10:43:57;16.00;;;13.00;;
21494;SDS011;10909;53.590;10.054;2022-12-16T10:46:42;18.17;;;13.00;;
21494;SDS011;10909;53.590;10.054;2022-12-16T10:49:26;15.57;;;12.30;;
21494;SDS011;10909;53.590;10.054;2022-12-16T10:52:11;17.07;;;12.90;;
21494;SDS011;10909;53.590;10.054;2022-12-16T10:55:05;16.63;;;12.30;;
21494;SDS011;10909;53.590;10.054;2022-12-16T11:01:19;15.80;;;12.33;;
21494;SDS011;10909;53.590;10.054;2022-12-16T11:10:34;16.10;;;12.77;;
21494;SDS011;10909;53.590;10.054;2022-12-16T11:13:22;17.27;;;12.70;;
21494;SDS011;10909;53.590;10.054;2022-12-16T11:16:12;15.53;;;12.40;;
21494;SDS011;10909;53.590;10.054;2022-12-16T11:18:57;17.60;;;13.40;;
21494;SDS011;10909;53.590;10.054;2022-12-16T11:21:42;17.03;;;13.73;;
21494;SDS011;10909;53.590;10.054;2022-12-16T11:24:27;16.60;;;12.60;;
21494;SDS011;10909;53.590;10.054;2022-12-16T11:27:13;18.10;;;13.20;;
21494;SDS011;10909;53.590;10.054;2022-12-16T11:30:03;16.50;;;13.13;;
21494;SDS011;10909;53.590;10.054;2022-12-16T11:32:59;20.33;;;13.50;;
21494;SDS011;10909;53.590;10.054;2022-12-16T11:36:05;17.80;;;13.03;;
21494;SDS011;10909;53.590;10.054;2022-12-16T11:38:58;15.53;;;12.23;;
21494;SDS011;10909;53.590;10.054;2022-12-16T11:41:47;23.08;;;19.58;;
21494;SDS011;10909;53.590;10.054;2022-12-16T11:50:34;20.03;;;16.03;;
21494;SDS011;10909;53.590;10.054;2022-12-16T11:53:31;17.93;;;14.63;;
21494;SDS011;10909;53.590;10.054;2022-12-16T11:56:26;18.13;;;12.77;;
21494;SDS011;10909;53.590;10.054;2022-12-16T12:02:22;25.02;;;20.27;;
21494;SDS011;10909;53.590;10.054;2022-12-16T12:05:18;21.13;;;15.97;;
21494;SDS011;10909;53.590;10.054;2022-12-16T12:17:28;18.70;;;13.03;;
21494;SDS011;10909;53.590;10.054;2022-12-16T12:26:37;15.63;;;12.07;;
21494;SDS011;10909;53.590;10.054;2022-12-16T12:29:43;15.40;;;12.57;;
21494;SDS011;10909;53.590;10.054;2022-12-16T12:36:26;13.77;;;10.90;;
21494;SDS011;10909;53.590;10.054;2022-12-16T12:39:39;15.63;;;11.97;;
21494;SDS011;10909;53.590;10.054;2022-12-16T12:42:48;14.53;;;11.47;;
21494;SDS011;10909;53.590;10.054;2022-12-16T12:49:04;13.70;;;11.67;;
21494;SDS011;10909;53.590;10.054;2022-12-16T12:52:09;15.67;;;12.73;;
21494;SDS011;10909;53.590;10.054;2022-12-16T12:57:57;16.17;;;12.43;;
21494;SDS011;10909;53.590;10.054;2022-12-16T13:00:44;17.70;;;12.23;;
21494;SDS011;10909;53.590;10.054;2022-12-16T13:06:20;15.10;;;12.43;;
21494;SDS011;10909;53.590;10.054;2022-12-16T13:14:51;17.50;;;13.47;;
21494;SDS011;10909;53.590;10.054;2022-12-16T13:20:47;16.60;;;13.50;;
21494;SDS011;10909;53.590;10.054;2022-12-16T13:23:39;18.17;;;12.73;;
21494;SDS011;10909;53.590;10.054;2022-12-16T13:26:27;17.50;;;12.20;;
21494;SDS011;10909;53.590;10.054;2022-12-16T13:29:23;16.73;;;12.60;;
21494;SDS011;10909;53.590;10.054;2022-12-16T13:32:20;17.53;;;13.33;;
21494;SDS011;10909;53.590;10.054;2022-12-16T13:37:53;15.17;;;12.73;;
21494;SDS011;10909;53.590;10.054;2022-12-16T13:44:09;20.70;;;12.80;;
21494;SDS011;10909;53.590;10.054;2022-12-16T13:46:57;16.63;;;13.27;;
21494;SDS011;10909;53.590;10.054;2022-12-16T13:53:29;16.20;;;12.23;;
21494;SDS011;10909;53.590;10.054;2022-12-16T13:56:25;16.57;;;12.43;;
21494;SDS011;10909;53.590;10.054;2022-12-16T13:59:19;19.10;;;13.33;;
21494;SDS011;10909;53.590;10.054;2022-12-16T14:05:19;15.90;;;12.53;;
21494;SDS011;10909;53.590;10.054;2022-12-16T14:08:20;17.73;;;12.83;;
21494;SDS011;10909;53.590;10.054;2022-12-16T14:11:13;16.40;;;12.93;;
21494;SDS011;10909;53.590;10.054;2022-12-16T14:17:12;17.73;;;13.23;;
21494;SDS011;10909;53.590;10.054;2022-12-16T14:20:29;16.90;;;13.40;;
21494;SDS011;10909;53.590;10.054;2022-12-16T14:26:22;17.23;;;13.07;;
21494;SDS011;10909;53.590;10.054;2022-12-16T14:29:41;16.77;;;13.23;;
21494;SDS011;10909;53.590;10.054;2022-12-16T14:32:24;17.93;;;14.00;;
21494;SDS011;10909;53.590;10.054;2022-12-16T14:35:16;20.20;;;13.50;;
21494;SDS011;10909;53.590;10.054;2022-12-16T14:38:19;16.17;;;12.90;;
21494;SDS011;10909;53.590;10.054;2022-12-16T14:41:04;20.03;;;13.00;;
21494;SDS011;10909;53.590;10.054;2022-12-16T14:44:01;16.70;;;13.23;;
21494;SDS011;10909;53.590;10.054;2022-12-16T14:46:49;20.47;;;14.27;;
21494;SDS011;10909;53.590;10.054;2022-12-16T14:49:34;20.07;;;14.23;;
21494;SDS011;10909;53.590;10.054;2022-12-16T14:52:20;17.80;;;13.33;;
21494;SDS011;10909;53.590;10.054;2022-12-16T14:55:19;17.13;;;13.10;;
21494;SDS011;10909;53.590;10.054;2022-12-16T14:58:13;18.20;;;14.37;;
21494;SDS011;10909;53.590;10.054;2022-12-16T15:01:00;16.93;;;12.97;;
21494;SDS011;10909;53.590;10.054;2022-12-16T15:03:56;17.17;;;13.10;;
21494;SDS011;10909;53.590;10.054;2022-12-16T15:06:42;18.10;;;13.27;;
21494;SDS011;10909;53.590;10.054;2022-12-16T15:12:39;18.47;;;13.47;;
21494;SDS011;10909;53.590;10.054;2022-12-16T15:15:32;18.80;;;13.90;;
21494;SDS011;10909;53.590;10.054;2022-12-16T15:18:31;18.20;;;13.73;;
21494;SDS011;10909;53.590;10.054;2022-12-16T15:21:24;17.33;;;13.53;;
21494;SDS011;10909;53.590;10.054;2022-12-16T15:24:16;17.23;;;13.40;;
21494;SDS011;10909;53.590;10.054;2022-12-16T15:33:17;21.93;;;14.37;;
21494;SDS011;10909;53.590;10.054;2022-12-16T15:36:04;21.23;;;14.37;;
21494;SDS011;10909;53.590;10.054;2022-12-16T15:38:49;20.10;;;14.77;;
21494;SDS011;10909;53.590;10.054;2022-12-16T15:41:34;20.50;;;15.43;;
21494;SDS011;10909;53.590;10.054;2022-12-16T15:44:23;18.93;;;14.57;;
21494;SDS011;10909;53.590;10.054;2022-12-16T15:47:19;22.93;;;16.07;;
21494;SDS011;10909;53.590;10.054;2022-12-16T15:50:34;20.77;;;15.33;;
21494;SDS011;10909;53.590;10.054;2022-12-16T15:53:30;21.77;;;15.30;;
21494;SDS011;10909;53.590;10.054;2022-12-16T15:59:28;20.83;;;15.20;;
21494;SDS011;10909;53.590;10.054;2022-12-16T16:02:28;19.90;;;14.93;;
21494;SDS011;10909;53.590;10.054;2022-12-16T16:05:20;21.10;;;14.97;;
21494;SDS011;10909;53.590;10.054;2022-12-16T16:08:10;21.27;;;15.17;;
21494;SDS011;10909;53.590;10.054;2022-12-16T16:10:54;20.53;;;15.60;;
21494;SDS011;10909;53.590;10.054;2022-12-16T16:13:39;22.03;;;15.83;;
21494;SDS011;10909;53.590;10.054;2022-12-16T16:16:24;22.90;;;16.83;;
21494;SDS011;10909;53.590;10.054;2022-12-16T16:19:09;23.27;;;16.80;;
21494;SDS011;10909;53.590;10.054;2022-12-16T16:21:58;21.63;;;17.07;;
21494;SDS011;10909;53.590;10.054;2022-12-16T16:24:42;21.77;;;16.67;;
21494;SDS011;10909;53.590;10.054;2022-12-16T16:27:26;22.27;;;16.13;;
21494;SDS011;10909;53.590;10.054;2022-12-16T16:30:11;21.17;;;15.37;;
21494;SDS011;10909;53.590;10.054;2022-12-16T16:32:55;22.47;;;16.73;;
21494;SDS011;10909;53.590;10.054;2022-12-16T16:35:40;21.70;;;16.17;;
21494;SDS011;10909;53.590;10.054;2022-12-16T16:38:24;23.30;;;17.03;;
21494;SDS011;10909;53.590;10.054;2022-12-16T16:41:12;23.80;;;17.17;;
21494;SDS011;10909;53.590;10.054;2022-12-16T16:43:58;23.80;;;17.63;;
21494;SDS011;10909;53.590;10.054;2022-12-16T16:46:42;22.63;;;17.40;;
21494;SDS011;10909;53.590;10.054;2022-12-16T16:49:37;23.43;;;17.73;;
21494;SDS011;10909;53.590;10.054;2022-12-16T16:52:24;22.07;;;17.37;;
21494;SDS011;10909;53.590;10.054;2022-12-16T16:55:17;24.30;;;17.03;;
21494;SDS011;10909;53.590;10.054;2022-12-16T16:58:05;24.07;;;17.97;;
21494;SDS011;10909;53.590;10.054;2022-12-16T17:00:55;22.07;;;17.07;;
21494;SDS011;10909;53.590;10.054;2022-12-16T17:03:39;23.73;;;18.43;;
21494;SDS011;10909;53.590;10.054;2022-12-16T17:06:37;24.57;;;16.87;;
21494;SDS011;10909;53.590;10.054;2022-12-16T17:09:21;21.87;;;16.97;;
21494;SDS011;10909;53.590;10.054;2022-12-16T17:12:23;24.67;;;17.97;;
21494;SDS011;10909;53.590;10.054;2022-12-16T17:18:01;28.23;;;18.13;;
21494;SDS011;10909;53.590;10.054;2022-12-16T17:20:45;25.73;;;18.07;;
21494;SDS011;10909;53.590;10.054;2022-12-16T17:23:37;23.90;;;18.47;;
21494;SDS011;10909;53.590;10.054;2022-12-16T17:26:22;25.40;;;18.20;;
21494;SDS011;10909;53.590;10.054;2022-12-16T17:29:11;26.10;;;18.27;;
21494;SDS011;10909;53.590;10.054;2022-12-16T17:32:01;22.57;;;17.70;;
21494;SDS011;10909;53.590;10.054;2022-12-16T17:34:45;28.53;;;19.73;;
21494;SDS011;10909;53.590;10.054;2022-12-16T17:37:29;28.17;;;20.47;;
21494;SDS011;10909;53.590;10.054;2022-12-16T17:40:13;29.07;;;19.03;;
21494;SDS011;10909;53.590;10.054;2022-12-16T17:42:58;26.80;;;19.73;;
21494;SDS011;10909;53.590;10.054;2022-12-16T17:45:42;25.97;;;19.17;;
21494;SDS011;10909;53.590;10.054;2022-12-16T17:48:37;25.83;;;19.33;;
21494;SDS011;10909;53.590;10.054;2022-12-16T17:51:21;26.33;;;19.00;;
21494;SDS011;10909;53.590;10.054;2022-12-16T17:54:05;27.50;;;19.00;;
21494;SDS011;10909;53.590;10.054;2022-12-16T17:56:50;24.07;;;17.70;;
21494;SDS011;10909;53.590;10.054;2022-12-16T17:59:34;23.97;;;18.33;;
21494;SDS011;10909;53.590;10.054;2022-12-16T18:02:18;24.43;;;18.63;;
21494;SDS011;10909;53.590;10.054;2022-12-16T18:05:02;23.63;;;17.73;;
21494;SDS011;10909;53.590;10.054;2022-12-16T18:07:46;26.40;;;18.63;;
21494;SDS011;10909;53.590;10.054;2022-12-16T18:10:30;25.10;;;18.47;;